createdAt,value
2023-04-20T00:00:55.448Z,7.83
2023-04-20T00:04:00.212Z,7.91
2023-04-20T00:07:30.387Z,8.06
2023-04-20T00:10:35.183Z,7.92
2023-04-20T00:13:39.849Z,8.14
2023-04-20T00:16:43.995Z,8.08
2023-04-20T00:19:48.311Z,8.24
2023-04-20T00:22:52.734Z,8.47
2023-04-20T00:25:57.372Z,8.33
2023-04-20T00:29:02.134Z,8.50
2023-04-20T00:32:07.462Z,8.44
2023-04-20T00:35:12.017Z,8.55
2023-04-20T00:38:16.007Z,8.45
2023-04-20T00:41:20.527Z,8.57
2023-04-20T00:44:25.068Z,8.69
2023-04-20T00:47:29.776Z,8.88
2023-04-20T00:50:35.447Z,8.94
2023-04-20T00:53:40.159Z,8.78
2023-04-20T00:56:44.901Z,8.86
2023-04-20T00:59:49.828Z,9.01
2023-04-20T01:02:54.678Z,9.12
2023-04-20T01:05:59.535Z,9.00
2023-04-20T01:09:04.285Z,9.18
2023-04-20T01:12:12.568Z,9.17
2023-04-20T01:15:16.729Z,9.38
2023-04-20T01:18:20.871Z,9.38
2023-04-20T01:21:25.073Z,9.38
2023-04-20T01:24:29.652Z,9.49
2023-04-20T01:27:36.422Z,9.66
2023-04-20T01:30:41.362Z,9.94
2023-04-20T01:33:45.714Z,9.49
2023-04-20T01:36:49.978Z,9.93
2023-04-20T01:39:54.834Z,10.38
2023-04-20T01:42:59.716Z,10.60
2023-04-20T01:46:04.868Z,11.22
2023-04-20T01:49:09.707Z,11.39
2023-04-20T01:52:13.629Z,11.39
2023-04-20T01:55:20.026Z,11.19
2023-04-20T01:58:24.833Z,11.26
2023-04-20T02:01:29.353Z,11.56
2023-04-20T02:04:33.991Z,11.80
2023-04-20T02:07:38.237Z,11.94
2023-04-20T02:10:43.987Z,11.78
2023-04-20T02:13:48.685Z,11.26
2023-04-20T02:16:54.141Z,12.27
2023-04-20T02:19:58.194Z,13.03
2023-04-20T02:23:02.375Z,14.21
2023-04-20T02:26:29.380Z,14.62
2023-04-20T02:29:34.036Z,14.72
2023-04-20T02:32:38.931Z,14.93
2023-04-20T02:35:43.772Z,14.68
2023-04-20T02:38:48.516Z,14.74
2023-04-20T02:41:53.089Z,14.64
2023-04-20T02:44:58.525Z,15.18
2023-04-20T02:48:03.169Z,15.74
2023-04-20T02:51:08.779Z,15.38
2023-04-20T02:54:18.427Z,14.87
2023-04-20T02:57:22.274Z,14.21
2023-04-20T03:00:27.030Z,14.33
2023-04-20T03:03:40.762Z,14.58
2023-04-20T03:06:48.323Z,15.18
2023-04-20T03:09:57.680Z,15.56
2023-04-20T03:13:20.807Z,15.02
2023-04-20T03:16:33.633Z,15.11
2023-04-20T03:19:38.598Z,15.68
2023-04-20T03:22:43.306Z,15.74
2023-04-20T03:25:47.750Z,16.27
2023-04-20T03:29:15.129Z,16.14
2023-04-20T03:32:19.475Z,16.62
2023-04-20T03:35:23.590Z,15.68
2023-04-20T03:38:28.046Z,15.60
2023-04-20T03:41:33.112Z,15.31
2023-04-20T03:44:38.702Z,14.96
2023-04-20T03:47:43.533Z,15.54
2023-04-20T03:50:47.717Z,15.00
2023-04-20T03:53:52.400Z,14.56
2023-04-20T03:56:57.393Z,15.28
2023-04-20T04:00:05.463Z,14.71
2023-04-20T04:03:22.931Z,14.65
2023-04-20T04:06:28.285Z,14.60
2023-04-20T04:09:32.479Z,14.75
2023-04-20T04:12:36.387Z,14.98
2023-04-20T04:15:41.092Z,15.28
2023-04-20T04:18:49.585Z,14.98
2023-04-20T04:21:54.629Z,15.08
2023-04-20T04:24:58.965Z,14.74
2023-04-20T04:28:03.390Z,14.48
2023-04-20T04:31:10.581Z,14.67
2023-04-20T04:34:16.278Z,14.21
2023-04-20T04:37:24.272Z,13.87
2023-04-20T04:40:33.663Z,13.75
2023-04-20T04:43:42.233Z,13.95
2023-04-20T04:46:56.937Z,13.72
2023-04-20T04:50:06.804Z,13.87
2023-04-20T04:53:11.552Z,13.70
2023-04-20T04:56:15.835Z,13.41
2023-04-20T04:59:20.295Z,13.18
2023-04-20T05:02:24.914Z,13.46
2023-04-20T05:05:31.808Z,13.68
2023-04-20T05:08:36.393Z,13.41
2023-04-20T05:11:40.430Z,13.93
2023-04-20T05:14:44.730Z,13.67
2023-04-20T05:17:50.748Z,13.05
2023-04-20T05:20:56.007Z,12.91
2023-04-20T05:24:00.767Z,13.50
2023-04-20T05:27:05.637Z,13.65
2023-04-20T05:30:20.315Z,13.91
2023-04-20T05:33:26.807Z,13.20
2023-04-20T05:36:31.803Z,13.10
2023-04-20T05:39:36.612Z,12.76
2023-04-20T05:42:41.719Z,12.42
2023-04-20T05:45:47.254Z,12.63
2023-04-20T05:48:52.254Z,12.45
2023-04-20T05:51:56.570Z,12.60
2023-04-20T05:55:00.966Z,12.51
2023-04-20T05:58:08.250Z,12.58
2023-04-20T06:01:12.870Z,12.35
2023-04-20T06:04:17.224Z,12.11
2023-04-20T06:07:21.927Z,12.00
2023-04-20T06:10:26.553Z,11.66
2023-04-20T06:13:30.571Z,10.83
2023-04-20T06:16:34.613Z,10.76
2023-04-20T06:19:39.064Z,10.74
2023-04-20T06:22:47.668Z,10.54
2023-04-20T06:25:52.210Z,10.73
2023-04-20T06:28:56.325Z,10.68
2023-04-20T06:32:00.263Z,10.76
2023-04-20T06:35:05.121Z,10.51
2023-04-20T06:38:09.691Z,9.94
2023-04-20T06:41:13.684Z,9.50
2023-04-20T06:44:18.112Z,9.21
2023-04-20T06:47:22.210Z,9.27
2023-04-20T06:50:26.331Z,8.78
2023-04-20T06:53:30.810Z,9.11
2023-04-20T06:56:35.714Z,9.20
2023-04-20T06:59:40.348Z,9.49
2023-04-20T07:02:50.284Z,9.72
2023-04-20T07:05:55.091Z,9.88
2023-04-20T07:08:59.579Z,10.07
2023-04-20T07:12:04.274Z,10.20
2023-04-20T07:15:10.162Z,10.44
2023-04-20T07:18:14.875Z,11.04
2023-04-20T07:21:19.480Z,11.32
2023-04-20T07:24:24.020Z,11.38
2023-04-20T07:27:30.447Z,11.41
2023-04-20T07:30:34.946Z,11.13
2023-04-20T07:33:39.990Z,10.91
2023-04-20T07:36:44.499Z,10.57
2023-04-20T07:39:48.416Z,10.64
2023-04-20T07:42:52.379Z,10.38
2023-04-20T07:45:57.402Z,10.48
2023-04-20T07:49:01.503Z,10.34
2023-04-20T07:52:15.612Z,10.28
2023-04-20T07:55:20.934Z,10.32
2023-04-20T07:58:25.484Z,9.82
2023-04-20T08:01:29.978Z,9.67
2023-04-20T08:04:37.526Z,9.61
2023-04-20T08:07:42.334Z,9.41
2023-04-20T08:10:55.035Z,9.48
2023-04-20T08:14:44.012Z,9.27
2023-04-20T08:17:48.693Z,9.33
2023-04-20T08:20:54.220Z,9.27
2023-04-20T08:23:58.860Z,9.04
2023-04-20T08:27:03.380Z,8.82
2023-04-20T08:30:08.798Z,8.68
2023-04-20T08:33:14.433Z,8.49
2023-04-20T08:36:19.745Z,8.58
2023-04-20T08:39:24.815Z,8.34
2023-04-20T08:42:29.668Z,8.62
2023-04-20T08:45:33.816Z,8.50
2023-04-20T08:48:39.360Z,8.49
2023-04-20T08:51:45.297Z,8.73
2023-04-20T08:54:56.040Z,8.48
2023-04-20T08:58:01.643Z,8.43
2023-04-20T09:01:06.432Z,8.68
2023-04-20T09:04:28.399Z,8.83
2023-04-20T09:07:33.888Z,8.43
2023-04-20T09:10:45.970Z,8.63
2023-04-20T09:14:07.500Z,8.35
2023-04-20T09:17:15.136Z,8.53
2023-04-20T09:20:32.914Z,8.62
2023-04-20T09:23:37.347Z,8.32
2023-04-20T09:26:41.940Z,8.34
2023-04-20T09:29:58.392Z,8.49
2023-04-20T09:33:04.338Z,8.33
2023-04-20T09:36:09.231Z,8.43
2023-04-20T09:39:19.941Z,8.20
2023-04-20T09:42:28.838Z,7.96
2023-04-20T09:45:33.597Z,8.25
2023-04-20T09:48:37.743Z,8.28
2023-04-20T09:51:47.819Z,8.31
2023-04-20T09:54:54.015Z,8.13
2023-04-20T09:57:59.740Z,7.77
2023-04-20T10:01:04.687Z,7.59
2023-04-20T10:04:11.658Z,7.66
2023-04-20T10:07:25.430Z,7.56
2023-04-20T10:10:30.064Z,7.52
2023-04-20T10:13:35.413Z,7.49
2023-04-20T10:16:39.402Z,7.42
2023-04-20T10:19:47.769Z,7.26
2023-04-20T10:23:16.672Z,7.32
2023-04-20T10:26:29.384Z,7.13
2023-04-20T10:29:42.213Z,7.22
2023-04-20T10:32:48.918Z,7.24
2023-04-20T10:35:59.180Z,7.06
2023-04-20T10:39:21.672Z,7.06
2023-04-20T10:42:27.645Z,6.98
2023-04-20T10:45:37.476Z,7.03
2023-04-20T10:48:51.624Z,6.98
2023-04-20T10:51:56.866Z,6.95
2023-04-20T10:55:01.669Z,6.98
2023-04-20T10:58:06.848Z,6.88
2023-04-20T11:01:11.338Z,6.52
2023-04-20T11:04:18.439Z,6.84
2023-04-20T11:07:25.080Z,6.79
2023-04-20T11:10:43.104Z,6.71
2023-04-20T11:13:47.912Z,6.66
2023-04-20T11:16:56.358Z,6.74
2023-04-20T11:20:26.921Z,6.86
2023-04-20T11:23:39.429Z,6.72
2023-04-20T11:26:44.521Z,6.62
2023-04-20T11:29:59.092Z,6.24
2023-04-20T11:33:04.027Z,6.55
2023-04-20T11:36:09.148Z,6.51
2023-04-20T11:39:16.244Z,6.33
2023-04-20T11:42:22.430Z,6.48
2023-04-20T11:45:28.514Z,6.45
2023-04-20T11:48:33.451Z,6.52
2023-04-20T11:51:38.573Z,6.39
2023-04-20T11:54:42.889Z,6.47
2023-04-20T11:57:47.434Z,6.34
2023-04-20T12:00:51.966Z,6.21
2023-04-20T12:03:56.837Z,6.15
2023-04-20T12:07:04.980Z,6.16
2023-04-20T12:10:10.156Z,6.10
2023-04-20T12:13:14.538Z,5.92
2023-04-20T12:16:18.927Z,6.13
2023-04-20T12:19:23.204Z,5.88
2023-04-20T12:22:28.005Z,6.12
2023-04-20T12:25:34.071Z,6.00
2023-04-20T12:28:38.441Z,5.89
2023-04-20T12:31:43.283Z,5.93
2023-04-20T12:34:49.390Z,5.90
2023-04-20T12:37:53.754Z,6.06
2023-04-20T12:40:58.087Z,6.07
2023-04-20T12:44:05.149Z,5.96
2023-04-20T12:47:11.656Z,5.86
2023-04-20T12:50:16.506Z,5.83
2023-04-20T12:53:20.742Z,5.65
2023-04-20T12:56:24.782Z,5.85
2023-04-20T12:59:29.672Z,5.75
2023-04-20T13:02:35.034Z,5.85
2023-04-20T13:05:39.876Z,5.67
2023-04-20T13:08:44.393Z,5.74
2023-04-20T13:11:48.367Z,5.73
2023-04-20T13:14:53.315Z,5.57
2023-04-20T13:17:57.740Z,5.82
2023-04-20T13:21:03.860Z,5.67
2023-04-20T13:24:08.629Z,5.59
2023-04-20T13:27:12.777Z,5.79
2023-04-20T13:30:16.844Z,5.82
2023-04-20T13:33:21.332Z,5.78
2023-04-20T13:36:26.322Z,5.79
2023-04-20T13:39:31.057Z,5.72
2023-04-20T13:42:35.701Z,5.71
2023-04-20T13:45:40.286Z,5.69
2023-04-20T13:48:48.108Z,5.72
2023-04-20T13:51:52.453Z,5.81
2023-04-20T13:54:57.056Z,5.85
2023-04-20T13:58:01.904Z,5.75
2023-04-20T14:01:14.333Z,5.91
2023-04-20T14:04:19.237Z,5.88
2023-04-20T14:07:24.148Z,5.92
2023-04-20T14:10:29.624Z,5.91
2023-04-20T14:13:34.190Z,5.83
2023-04-20T14:16:46.073Z,5.88
2023-04-20T14:19:50.362Z,5.84
2023-04-20T14:22:54.936Z,5.81
2023-04-20T14:25:59.447Z,5.85
2023-04-20T14:29:03.972Z,5.92
2023-04-20T14:32:08.460Z,5.89
2023-04-20T14:35:12.845Z,5.80
2023-04-20T14:38:17.182Z,6.02
2023-04-20T14:41:21.695Z,5.88
2023-04-20T14:44:26.368Z,5.76
2023-04-20T14:47:33.373Z,5.93
2023-04-20T14:50:37.882Z,5.82
2023-04-20T14:53:42.264Z,5.80
2023-04-20T14:56:46.855Z,5.71
2023-04-20T14:59:51.470Z,5.77
2023-04-20T15:03:00.621Z,5.76
2023-04-20T15:06:05.543Z,5.76
2023-04-20T15:09:09.617Z,5.66
2023-04-20T15:12:14.111Z,5.62
2023-04-20T15:15:18.907Z,5.67
2023-04-20T15:18:23.356Z,5.77
2023-04-20T15:21:27.780Z,5.79
2023-04-20T15:24:33.628Z,5.59
2023-04-20T15:27:37.426Z,5.41
2023-04-20T15:30:41.884Z,5.59
2023-04-20T15:33:48.742Z,5.30
2023-04-20T15:36:52.768Z,5.32
2023-04-20T15:39:57.018Z,5.35
2023-04-20T15:43:00.953Z,5.39
2023-04-20T15:46:05.098Z,5.34
2023-04-20T15:49:09.150Z,5.36
2023-04-20T15:52:13.113Z,5.39
2023-04-20T15:55:17.916Z,5.19
2023-04-20T15:58:23.981Z,5.57
2023-04-20T16:01:28.598Z,5.03
2023-04-20T16:04:33.221Z,5.26
2023-04-20T16:07:37.614Z,5.22
2023-04-20T16:10:41.996Z,4.99
2023-04-20T16:13:46.377Z,5.07
2023-04-20T16:16:50.828Z,5.13
2023-04-20T16:19:54.887Z,5.08
2023-04-20T16:22:58.795Z,5.18
2023-04-20T16:26:02.781Z,5.21
2023-04-20T16:29:07.757Z,5.03
2023-04-20T16:32:12.675Z,5.13
2023-04-20T16:35:17.161Z,4.98
2023-04-20T16:38:21.524Z,5.09
2023-04-20T16:41:26.526Z,4.92
2023-04-20T16:44:30.903Z,5.01
2023-04-20T16:47:35.648Z,5.11
2023-04-20T16:50:42.113Z,4.92
2023-04-20T16:53:47.232Z,5.00
2023-04-20T16:56:52.129Z,4.98
2023-04-20T16:59:56.830Z,5.12
2023-04-20T17:03:04.347Z,5.01
2023-04-20T17:06:10.544Z,4.73
2023-04-20T17:09:15.370Z,4.70
2023-04-20T17:12:19.391Z,4.71
2023-04-20T17:15:24.495Z,4.93
2023-04-20T17:18:28.702Z,4.58
2023-04-20T17:21:33.163Z,4.98
2023-04-20T17:24:37.287Z,5.08
2023-04-20T17:27:41.693Z,4.94
2023-04-20T17:30:46.577Z,4.91
2023-04-20T17:33:50.800Z,4.86
2023-04-20T17:36:55.007Z,4.85
2023-04-20T17:39:59.744Z,4.78
2023-04-20T17:43:04.439Z,4.93
2023-04-20T17:46:09.268Z,4.68
2023-04-20T17:49:14.117Z,4.86
2023-04-20T17:52:20.572Z,4.74
2023-04-20T17:55:25.207Z,4.47
2023-04-20T17:58:29.239Z,4.74
2023-04-20T18:01:36.646Z,4.84
2023-04-20T18:04:41.271Z,4.70
2023-04-20T18:07:46.854Z,4.67
2023-04-20T18:10:51.274Z,4.58
2023-04-20T18:13:57.988Z,4.40
2023-04-20T18:17:02.442Z,4.23
2023-04-20T18:20:09.344Z,4.30
2023-04-20T18:23:14.592Z,4.27
2023-04-20T18:26:18.711Z,4.09
2023-04-20T18:29:23.019Z,4.15
2023-04-20T18:32:31.812Z,4.13
2023-04-20T18:35:36.562Z,4.24
2023-04-20T18:38:41.629Z,4.37
2023-04-20T18:41:46.168Z,4.38
2023-04-20T18:44:53.773Z,3.90
2023-04-20T18:48:01.292Z,4.25
2023-04-20T18:51:06.204Z,4.04
2023-04-20T18:54:10.984Z,3.90
2023-04-20T18:57:14.879Z,3.99
2023-04-20T19:00:23.188Z,3.91
2023-04-20T19:03:27.902Z,3.86
2023-04-20T19:06:32.113Z,3.70
2023-04-20T19:09:39.853Z,3.89
2023-04-20T19:12:44.667Z,3.57
2023-04-20T19:15:48.836Z,3.61
2023-04-20T19:18:52.795Z,3.11
2023-04-20T19:22:15.934Z,3.41
2023-04-20T19:25:21.869Z,3.37
2023-04-20T19:28:26.455Z,3.12
2023-04-20T19:31:37.422Z,3.25
2023-04-20T19:34:42.393Z,3.21
2023-04-20T19:37:47.110Z,2.73
2023-04-20T19:40:52.793Z,3.36
2023-04-20T19:43:56.953Z,3.03
2023-04-20T19:47:01.470Z,3.08
2023-04-20T19:50:06.574Z,2.96
2023-04-20T19:53:11.292Z,3.01
2023-04-20T19:56:16.090Z,3.06
2023-04-20T19:59:21.044Z,3.20
2023-04-20T20:02:26.216Z,3.00
2023-04-20T20:05:30.981Z,3.16
2023-04-20T20:08:35.890Z,3.08
2023-04-20T20:11:40.381Z,3.01
2023-04-20T20:14:44.855Z,3.01
2023-04-20T20:17:48.867Z,2.92
2023-04-20T20:20:53.251Z,2.92
2023-04-20T20:23:57.467Z,3.02
2023-04-20T20:27:01.388Z,3.00
2023-04-20T20:30:05.708Z,3.04
2023-04-20T20:33:10.347Z,3.01
2023-04-20T20:36:15.376Z,2.91
2023-04-20T20:39:19.505Z,2.79
2023-04-20T20:42:24.360Z,2.72
2023-04-20T20:45:28.719Z,2.75
2023-04-20T20:48:32.897Z,2.71
2023-04-20T20:51:37.202Z,2.68
2023-04-20T20:54:43.307Z,2.79
2023-04-20T20:57:47.564Z,2.99
2023-04-20T21:00:52.141Z,3.20
2023-04-20T21:03:56.870Z,3.07
2023-04-20T21:07:01.337Z,2.82
2023-04-20T21:10:20.238Z,3.30
2023-04-20T21:18:04.163Z,4.29
2023-04-20T21:21:17.282Z,4.80
2023-04-20T21:24:22.054Z,5.01
2023-04-20T21:27:26.437Z,5.38
2023-04-20T21:30:31.087Z,5.74
2023-04-20T21:33:36.777Z,6.76
2023-04-20T21:36:41.526Z,7.35
2023-04-20T21:39:45.586Z,7.45
2023-04-20T21:42:49.950Z,7.80
2023-04-20T21:45:54.582Z,8.04
2023-04-20T21:48:59.130Z,9.83
2023-04-20T21:52:03.556Z,9.75
2023-04-20T21:55:08.526Z,9.00
2023-04-20T21:58:13.100Z,7.62
2023-04-20T22:01:17.831Z,7.80
2023-04-20T22:04:23.033Z,8.14
2023-04-20T22:07:28.323Z,8.23
2023-04-20T22:10:33.098Z,9.67
2023-04-20T22:13:58.131Z,10.63
2023-04-20T22:17:02.604Z,10.56
2023-04-20T22:20:09.226Z,10.34
2023-04-20T22:23:13.310Z,8.86
2023-04-20T22:26:18.119Z,8.76
2023-04-20T22:29:23.646Z,10.14
2023-04-20T22:32:28.442Z,10.47
2023-04-20T22:35:33.099Z,10.63
2023-04-20T22:38:37.999Z,11.32
2023-04-20T22:41:43.041Z,12.37
2023-04-20T22:44:47.189Z,12.42
2023-04-20T22:47:51.748Z,12.30
2023-04-20T22:50:56.203Z,11.36
2023-04-20T22:54:01.734Z,11.50
2023-04-20T22:57:05.400Z,13.48
2023-04-20T23:00:14.650Z,13.04
2023-04-20T23:03:18.789Z,13.16
2023-04-20T23:06:25.545Z,11.71
2023-04-20T23:09:29.552Z,10.42
2023-04-20T23:12:34.234Z,10.46
2023-04-20T23:15:38.604Z,10.78
2023-04-20T23:18:42.799Z,11.47
2023-04-20T23:21:46.772Z,12.64
2023-04-20T23:24:51.458Z,11.84
2023-04-20T23:27:55.989Z,11.76
2023-04-20T23:31:00.688Z,11.60
2023-04-20T23:34:04.961Z,11.82
2023-04-20T23:37:09.616Z,11.43
2023-04-20T23:40:14.121Z,11.51
2023-04-20T23:43:18.702Z,11.83
2023-04-20T23:46:23.323Z,11.21
2023-04-20T23:49:28.155Z,11.63
2023-04-20T23:52:32.952Z,11.62
2023-04-20T23:55:37.756Z,11.77
2023-04-20T23:58:41.819Z,12.13
